Terminal Aerodrome Forecast
Issued by NWS Brownsville, TX

Home | Current Version | Previous Version | Text Only | Print | Product List | Glossary On
Versions: 1 2 3 4 5 6 7 8 9 10 11 12
000
FTUS44 KBRO 252300
TAFHRL
TAF
KHRL 252331Z 2600/2624 15013G18KT P6SM SCT050 BKN200
     FM260600 16011KT P6SM BKN035
     FM261600 17015G20KT P6SM SCT025 BKN040
     FM261900 19022G28KT P6SM OVC050
     FM262300 16015G20KT P6SM SCT050 BKN200=

USA.gov is the U.S. government's official web portal to all federal, state and local government web resources and services.